Flight Track Log - Related Links

Times and Time Zones

All times are in EDT time to prevent confusion due to time zone crossing. See the N735MS flight status page for this flight to view local times or setup timezone preferences in your user account.

Time Position Orientation Groundspeed Altitude Reporting Facility
EDT Latitude Longitude Course Direction KTS MPH feet Rate Location/Type
Fri 03:23:28 PM 34.4531 -118.9206 126° Southeast 142 163 7,400  Level Los Angeles Center
Fri 03:24:35 PM 34.4322 -118.8856 126° Southeast 141 162 7,500 -47 Climbing Los Angeles Center
Fri 03:25:37 PM 34.4086 -118.8481 127° Southeast 141 162 7,300 -336 Descending Los Angeles Center
Fri 03:26:40 PM 34.3839 -118.8061 126° Southeast 152 175 6,800 -384 Descending Los Angeles Center
Fri 03:27:42 PM 34.3589 -118.7675 128° Southeast 148 170 6,500 -145 Descending Los Angeles Center
Fri 03:28:44 PM 34.3322 -118.7242 127° Southeast 135 155 6,500 145 Level Los Angeles Center
Fri 03:29:46 PM 34.3108 -118.6872 125° Southeast 134 154 6,800 339 Climbing Los Angeles Center
Fri 03:30:48 PM 34.2931 -118.6553 124° Southeast 119 137 7,200 435 Climbing Los Angeles Center
Fri 03:31:50 PM 34.2756 -118.6242 124° Southeast 113 130 7,700 532 Climbing Los Angeles Center
Fri 03:32:52 PM 34.2578 -118.5972 129° Southeast 104 120 8,300 528 Climbing Los Angeles Center
Fri 03:33:55 PM 34.2400 -118.5694 128° Southeast 104 120 8,800 528 Climbing Los Angeles Center
Fri 03:34:57 PM 34.2153 -118.5375 133° Southeast 107 123 9,400 339 Climbing Los Angeles Center
Fri 03:35:59 PM 34.1908 -118.5147 142° Southeast 110 127 9,500 48 Climbing Los Angeles Center
Fri 03:37:01 PM 34.1667 -118.4808 131° Southeast 128 147 9,500  Level Los Angeles Center
Fri 03:38:03 PM 34.1425 -118.4472 131° Southeast 132 152 9,500  Level Los Angeles Center
Fri 03:39:05 PM 34.1111 -118.4275 153° Southeast 129 148 9,500 33 Level Los Angeles Center
Fri 03:41:04 PM 34.0333 -118.3833 155° Southeast 130 150 9,600  Climbing Southern California TRACON
Fri 03:41:59 PM 34.0167 -118.3667 140° Southeast 138 159 9,500 -261 Descending Southern California TRACON
Fri 03:42:59 PM 33.9833 -118.3500 157° South 144 166 9,100 -400 Descending Southern California TRACON
Fri 03:43:14 PM 33.9697 -118.3525 189° South 133 153 9,000 -935 Descending Los Angeles Center
Fri 03:44:16 PM 33.9389 -118.3356 155° Southeast 126 145 7,900 -1,258 Descending Los Angeles Center
Fri 03:45:18 PM 33.9092 -118.3208 158° South 120 138 6,400 -1,500 Descending Los Angeles Center
Fri 03:46:20 PM 33.8758 -118.3036 157° South 110 127 4,800 -1,401 Descending Los Angeles Center
Fri 03:47:35 PM 33.8436 -118.2856 155° Southeast 107 123 3,200 -1,182 Descending Los Angeles Center
Fri 03:48:37 PM 33.8164 -118.2931 193° South 119 137 2,100 -871 Descending Los Angeles Center
Fri 03:49:39 PM 33.8144 -118.3311 266° West 128 147 1,400 -290 Descending Los Angeles Center
Fri 03:50:41 PM 33.8258 -118.3592 296° West 115 132 1,500 -435 Climbing Los Angeles Center
Fri 03:51:43 PM 33.8094 -118.3467 148° Southeast 80 92 500 -677 Descending Los Angeles Center
Fri 03:52:45 PM 33.7994 -118.3336 133° Southeast 65 75 100 -387 Descending Los Angeles Center

Login

Don't have an account? Register now (free) for customized features, flight alerts, and more!